Terminal Aerodrome Forecast
Issued by NWS

Home | Current Version | Previous Version | Graphics & Text | Print | Product List | Glossary On
Versions: 1 2 3 4 5 6 7 8 9 10 11 12 13 14 15 16 17 18 19 20 21
000
FTUS43 KGRB 161100 AAB
TAFCWA
TAF AMD
KCWA 161106Z 1611/1706 04004KT 2SM -RA BR OVC003
      TEMPO 1612/1613 -RASN
     FM161300 33012KT 2SM -SN BR OVC008
     FM161900 32014KT 5SM BR OVC013
      TEMPO 1619/1623 2SM -SN BR OVC009
     FM162300 32014KT 6SM BR OVC015 PROB30 1623/1702 5SM -SN BR
      OVC014
      AMD LTD TO CLD VIS AND WIND TIL 161200=

USA.gov is the U.S. government's official web portal to all federal, state and local government web resources and services.